Time,TemperatureF,DewpointF,PressureIn,WindDirection,WindDirectionDegrees,WindSpeedMPH,WindSpeedGustMPH,Humidity,HourlyPrecipIn,Conditions,Clouds,dailyrainin,SolarRadiationWatts/m^2,SoftwareType,DateUTC
2013-02-23 00:01:00,33.0,23.0,-100.00,SSE,167,21.0,30.0,64,-99.99,,,-99.99,0.120000,,2013-02-23 07:01:00,
2013-02-23 00:11:00,33.0,23.0,-100.00,SSE,167,21.0,30.0,64,-99.99,,,-99.99,0.120000,,2013-02-23 07:11:00,
2013-02-23 00:41:00,34.0,23.0,-100.00,South,173,17.0,25.0,64,-99.99,,,0.00,0.120000,,2013-02-23 07:41:00,
2013-02-23 00:52:00,34.0,23.0,-100.00,South,173,17.0,25.0,64,-99.99,,,0.00,0.120000,,2013-02-23 07:52:00,
2013-02-23 01:01:00,34.0,23.0,-100.00,South,173,17.0,25.0,64,-99.99,,,0.00,0.120000,,2013-02-23 08:01:00,
2013-02-23 01:11:00,34.0,23.0,-100.00,South,173,17.0,25.0,64,-99.99,,,0.00,0.120000,,2013-02-23 08:11:00,
2013-02-23 01:41:00,35.0,22.0,-100.00,South,185,16.0,23.0,60,-99.99,,,0.00,0.120000,,2013-02-23 08:41:00,
2013-02-23 01:52:00,35.0,22.0,-100.00,South,185,16.0,23.0,60,-99.99,,,0.00,0.120000,,2013-02-23 08:52:00,
2013-02-23 02:01:00,35.0,22.0,-100.00,South,185,16.0,23.0,60,-99.99,,,0.00,0.120000,,2013-02-23 09:01:00,
2013-02-23 02:11:00,35.0,22.0,-100.00,South,185,16.0,23.0,60,-99.99,,,0.00,0.120000,,2013-02-23 09:11:00,
2013-02-23 02:41:00,34.0,22.0,-100.00,South,175,15.0,22.0,62,-99.99,,,0.00,0.120000,,2013-02-23 09:41:00,
2013-02-23 02:52:00,34.0,22.0,-100.00,South,175,15.0,22.0,62,-99.99,,,0.00,0.120000,,2013-02-23 09:52:00,
2013-02-23 03:01:00,34.0,22.0,-100.00,South,175,15.0,22.0,62,-99.99,,,0.00,0.120000,,2013-02-23 10:01:00,
2013-02-23 03:11:00,34.0,22.0,-100.00,South,175,15.0,22.0,62,-99.99,,,0.00,0.120000,,2013-02-23 10:11:00,
2013-02-23 03:41:00,33.0,23.0,-100.00,SSW,205,14.0,19.0,66,-99.99,,,0.00,0.120000,,2013-02-23 10:41:00,
2013-02-23 03:52:00,33.0,23.0,-100.00,SSW,205,14.0,19.0,66,-99.99,,,0.00,0.120000,,2013-02-23 10:52:00,
2013-02-23 04:02:00,33.0,23.0,-100.00,SSW,205,14.0,19.0,66,-99.99,,,0.00,0.120000,,2013-02-23 11:02:00,
2013-02-23 04:11:00,33.0,23.0,-100.00,SSW,205,14.0,19.0,66,-99.99,,,0.00,0.120000,,2013-02-23 11:11:00,
2013-02-23 04:41:00,30.0,25.0,-100.00,North,1,12.0,22.0,83,-99.99,,,0.00,0.120000,,2013-02-23 11:41:00,
2013-02-23 04:52:00,30.0,25.0,-100.00,North,1,12.0,22.0,83,-99.99,,,0.00,0.120000,,2013-02-23 11:52:00,
2013-02-23 05:01:00,30.0,25.0,-100.00,North,1,12.0,22.0,83,-99.99,,,0.00,0.120000,,2013-02-23 12:01:00,
2013-02-23 05:11:00,30.0,25.0,-100.00,North,1,12.0,22.0,83,-99.99,,,0.00,0.120000,,2013-02-23 12:11:00,
2013-02-23 05:42:00,28.0,25.0,-100.00,NNE,21,15.0,23.0,90,-99.99,,,0.00,0.120000,,2013-02-23 12:42:00,
2013-02-23 05:52:00,28.0,25.0,-100.00,NNE,21,15.0,23.0,90,-99.99,,,0.00,0.120000,,2013-02-23 12:52:00,
2013-02-23 06:01:00,28.0,25.0,-100.00,NNE,21,15.0,23.0,90,-99.99,,,0.00,0.120000,,2013-02-23 13:01:00,
2013-02-23 06:11:00,28.0,25.0,-100.00,NNE,21,15.0,23.0,90,-99.99,,,0.00,0.120000,,2013-02-23 13:11:00,
2013-02-23 06:42:00,29.0,23.0,-100.00,WSW,242,3.0,7.0,81,-99.99,,,0.00,0.120000,,2013-02-23 13:42:00,
2013-02-23 06:52:00,29.0,23.0,-100.00,WSW,242,3.0,7.0,81,-99.99,,,0.00,0.120000,,2013-02-23 13:52:00,
2013-02-23 07:02:00,29.0,23.0,-100.00,WSW,242,3.0,7.0,81,-99.99,,,0.00,0.120000,,2013-02-23 14:02:00,
2013-02-23 07:11:00,29.0,23.0,-100.00,WSW,242,3.0,7.0,81,-99.99,,,0.00,0.120000,,2013-02-23 14:11:00,
2013-02-23 07:41:00,27.0,20.0,-100.00,East,96,4.0,8.0,75,-99.99,,,0.00,0.460000,,2013-02-23 14:41:00,
2013-02-23 07:52:00,27.0,20.0,-100.00,East,96,4.0,8.0,75,-99.99,,,0.00,0.460000,,2013-02-23 14:52:00,
2013-02-23 08:01:00,27.0,20.0,-100.00,East,96,4.0,8.0,75,-99.99,,,0.00,0.460000,,2013-02-23 15:01:00,
2013-02-23 08:11:00,27.0,20.0,-100.00,East,96,4.0,8.0,75,-99.99,,,0.00,0.460000,,2013-02-23 15:11:00,
2013-02-23 08:41:00,27.0,18.0,-100.00,North,6,5.0,11.0,68,-99.99,,,-99.99,36.380001,,2013-02-23 15:41:00,
2013-02-23 08:52:00,27.0,18.0,-100.00,North,6,5.0,11.0,68,-99.99,,,-99.99,36.380001,,2013-02-23 15:52:00,
2013-02-23 09:01:00,27.0,18.0,-100.00,North,6,5.0,11.0,68,-99.99,,,-99.99,36.380001,,2013-02-23 16:01:00,
2013-02-23 09:11:00,27.0,18.0,-100.00,North,6,5.0,11.0,68,-99.99,,,-99.99,36.380001,,2013-02-23 16:11:00,
2013-02-23 09:42:00,29.0,13.0,-100.00,West,281,4.0,12.0,51,-99.99,,,0.00,106.570000,,2013-02-23 16:42:00,
2013-02-23 09:52:00,29.0,13.0,-100.00,West,281,4.0,12.0,51,-99.99,,,0.00,106.570000,,2013-02-23 16:52:00,
2013-02-23 10:01:00,29.0,13.0,-100.00,West,281,4.0,12.0,51,-99.99,,,0.00,106.570000,,2013-02-23 17:01:00,
2013-02-23 10:11:00,29.0,13.0,-100.00,West,281,4.0,12.0,51,-99.99,,,0.00,106.570000,,2013-02-23 17:11:00,
2013-02-23 10:41:00,30.0,9.0,-100.00,West,260,2.0,6.0,40,-99.99,,,0.00,303.920013,,2013-02-23 17:41:00,
2013-02-23 10:52:00,30.0,9.0,-100.00,West,260,2.0,6.0,40,-99.99,,,0.00,303.920013,,2013-02-23 17:52:00,
2013-02-23 11:01:00,30.0,9.0,-100.00,West,260,2.0,6.0,40,-99.99,,,0.00,303.920013,,2013-02-23 18:01:00,
2013-02-23 11:12:00,30.0,9.0,-100.00,West,260,2.0,6.0,40,-99.99,,,0.00,303.920013,,2013-02-23 18:12:00,
2013-02-23 11:41:00,30.0,7.0,-100.00,NW,308,13.0,21.0,37,-99.99,,,0.00,324.489990,,2013-02-23 18:41:00,
2013-02-23 11:52:00,30.0,7.0,-100.00,NW,308,13.0,21.0,37,-99.99,,,0.00,324.489990,,2013-02-23 18:52:00,
2013-02-23 12:01:00,30.0,7.0,-100.00,NW,308,13.0,21.0,37,-99.99,,,0.00,324.489990,,2013-02-23 19:01:00,
2013-02-23 12:11:00,30.0,7.0,-100.00,NW,308,13.0,21.0,37,-99.99,,,0.00,324.489990,,2013-02-23 19:11:00,
2013-02-23 12:41:00,32.0,10.0,-100.00,NNW,337,8.0,15.0,39,-99.99,,,0.00,645.719971,,2013-02-23 19:41:00,
2013-02-23 12:52:00,32.0,10.0,-100.00,NNW,337,8.0,15.0,39,-99.99,,,0.00,645.719971,,2013-02-23 19:52:00,
2013-02-23 13:01:00,32.0,10.0,-100.00,NNW,337,8.0,15.0,39,-99.99,,,0.00,645.719971,,2013-02-23 20:01:00,
2013-02-23 13:11:00,32.0,10.0,-100.00,NNW,337,8.0,15.0,39,-99.99,,,0.00,645.719971,,2013-02-23 20:11:00,
2013-02-23 13:41:00,32.0,11.0,-100.00,North,0,14.0,23.0,40,-99.99,,,0.00,461.970001,,2013-02-23 20:41:00,
2013-02-23 13:52:00,32.0,11.0,-100.00,North,0,14.0,23.0,40,-99.99,,,0.00,461.970001,,2013-02-23 20:52:00,
2013-02-23 14:01:00,32.0,11.0,-100.00,North,0,14.0,23.0,40,-99.99,,,0.00,461.970001,,2013-02-23 21:01:00,
2013-02-23 14:11:00,32.0,11.0,-100.00,North,0,14.0,23.0,40,-99.99,,,0.00,461.970001,,2013-02-23 21:11:00,
2013-02-23 14:41:00,31.0,8.0,-100.00,WNW,290,11.0,25.0,36,-99.99,,,0.00,264.869995,,2013-02-23 21:41:00,
2013-02-23 14:52:00,31.0,8.0,-100.00,WNW,290,11.0,25.0,36,-99.99,,,0.00,264.869995,,2013-02-23 21:52:00,
2013-02-23 15:01:00,31.0,8.0,-100.00,WNW,290,11.0,25.0,36,-99.99,,,0.00,264.869995,,2013-02-23 22:01:00,
2013-02-23 15:11:00,31.0,8.0,-100.00,WNW,290,11.0,25.0,36,-99.99,,,0.00,264.869995,,2013-02-23 22:11:00,
2013-02-23 15:41:00,32.0,8.0,-100.00,NNW,343,14.0,24.0,36,-99.99,,,0.00,273.700012,,2013-02-23 22:41:00,
2013-02-23 15:52:00,32.0,8.0,-100.00,NNW,343,14.0,24.0,36,-99.99,,,0.00,273.700012,,2013-02-23 22:52:00,
2013-02-23 16:01:00,32.0,8.0,-100.00,NNW,343,14.0,24.0,36,-99.99,,,0.00,273.700012,,2013-02-23 23:01:00,
2013-02-23 16:11:00,32.0,8.0,-100.00,NNW,343,14.0,24.0,36,-99.99,,,0.00,273.700012,,2013-02-23 23:11:00,
2013-02-23 16:41:00,31.0,10.0,-100.00,North,355,13.0,29.0,41,-99.99,,,0.00,113.900002,,2013-02-23 23:41:00,
2013-02-23 16:52:00,31.0,10.0,-100.00,North,355,13.0,29.0,41,-99.99,,,0.00,113.900002,,2013-02-23 23:52:00,
2013-02-23 17:01:00,31.0,10.0,-100.00,North,355,13.0,29.0,41,-99.99,,,0.00,113.900002,,2013-02-24 00:01:00,
2013-02-23 17:11:00,31.0,10.0,-100.00,North,355,13.0,29.0,41,-99.99,,,0.00,113.900002,,2013-02-24 00:11:00,
2013-02-23 17:42:00,30.0,11.0,-100.00,NNW,341,12.0,20.0,44,-99.99,,,0.00,61.130001,,2013-02-24 00:42:00,
2013-02-23 17:52:00,30.0,11.0,-100.00,NNW,341,12.0,20.0,44,-99.99,,,0.00,61.130001,,2013-02-24 00:52:00,
2013-02-23 18:01:00,30.0,11.0,-100.00,NNW,341,12.0,20.0,44,-99.99,,,0.00,61.130001,,2013-02-24 01:01:00,
2013-02-23 18:11:00,30.0,11.0,-100.00,NNW,341,12.0,20.0,44,-99.99,,,0.00,61.130001,,2013-02-24 01:11:00,
2013-02-23 18:41:00,29.0,12.0,-100.00,North,359,11.0,18.0,48,-99.99,,,0.00,2.790000,,2013-02-24 01:41:00,
2013-02-23 18:52:00,29.0,12.0,-100.00,North,359,11.0,18.0,48,-99.99,,,0.00,2.790000,,2013-02-24 01:52:00,
2013-02-23 19:01:00,29.0,12.0,-100.00,North,359,11.0,18.0,48,-99.99,,,0.00,2.790000,,2013-02-24 02:01:00,
2013-02-23 19:11:00,29.0,12.0,-100.00,North,359,11.0,18.0,48,-99.99,,,0.00,2.790000,,2013-02-24 02:11:00,
2013-02-23 19:41:00,29.0,11.0,-100.00,NNW,333,7.0,13.0,47,-99.99,,,0.00,0.120000,,2013-02-24 02:41:00,
2013-02-23 19:52:00,29.0,11.0,-100.00,NNW,333,7.0,13.0,47,-99.99,,,0.00,0.120000,,2013-02-24 02:52:00,
2013-02-23 20:01:00,29.0,11.0,-100.00,NNW,333,7.0,13.0,47,-99.99,,,0.00,0.120000,,2013-02-24 03:01:00,
2013-02-23 20:11:00,29.0,11.0,-100.00,NNW,333,7.0,13.0,47,-99.99,,,0.00,0.120000,,2013-02-24 03:11:00,
2013-02-23 20:42:00,28.0,12.0,-100.00,North,7,5.0,9.0,51,-99.99,,,0.00,0.120000,,2013-02-24 03:42:00,
2013-02-23 20:52:00,28.0,12.0,-100.00,North,7,5.0,9.0,51,-99.99,,,0.00,0.120000,,2013-02-24 03:52:00,
2013-02-23 21:01:00,28.0,12.0,-100.00,North,7,5.0,9.0,51,-99.99,,,0.00,0.120000,,2013-02-24 04:01:00,
2013-02-23 21:11:00,28.0,12.0,-100.00,North,7,5.0,9.0,51,-99.99,,,0.00,0.120000,,2013-02-24 04:11:00,
2013-02-23 21:41:00,27.0,12.0,-100.00,NW,325,8.0,13.0,50,-99.99,,,0.00,0.120000,,2013-02-24 04:41:00,
2013-02-23 21:52:00,27.0,12.0,-100.00,NW,325,8.0,13.0,50,-99.99,,,0.00,0.120000,,2013-02-24 04:52:00,
2013-02-23 22:01:00,27.0,12.0,-100.00,NW,325,8.0,13.0,50,-99.99,,,0.00,0.120000,,2013-02-24 05:01:00,
2013-02-23 22:11:00,27.0,12.0,-100.00,NW,325,8.0,13.0,50,-99.99,,,0.00,0.120000,,2013-02-24 05:11:00,
2013-02-23 22:42:00,25.0,13.0,-100.00,North,0,7.0,18.0,60,-99.99,,,0.00,0.120000,,2013-02-24 05:42:00,
2013-02-23 22:52:00,25.0,13.0,-100.00,North,0,7.0,18.0,60,-99.99,,,0.00,0.120000,,2013-02-24 05:52:00,
2013-02-23 23:01:00,25.0,13.0,-100.00,North,0,7.0,18.0,60,-99.99,,,0.00,0.120000,,2013-02-24 06:01:00,
2013-02-23 23:11:00,25.0,13.0,-100.00,North,0,7.0,18.0,60,-99.99,,,0.00,0.120000,,2013-02-24 06:11:00,
2013-02-23 23:41:00,24.0,13.0,-100.00,NNE,12,6.0,10.0,61,-99.99,,,0.00,0.120000,,2013-02-24 06:41:00,
2013-02-23 23:52:00,24.0,13.0,-100.00,NNE,12,6.0,10.0,61,-99.99,,,0.00,0.120000,,2013-02-24 06:52:00,